N745FX KLAX-KTPH
Flight info
| Callsign | N745FX |
|---|---|
| Flight time | 1h 50m |
| Altitude | 13000 |
| Route | PMD NID BTY/N0168F160 |
| Aircraft | C208/L-SDFGR/C |
Departure
| Time | 2026-05-06 08:57 |
|---|---|
| Airport | Los Angeles International Airport (KLAX) |
Arrival
| Time | 2026-05-06 10:47 |
|---|---|
| Airport | Tonopah Airport (KTPH) |
| Time | Latitude | Longitude | Altitude | Speed | Heading |
|---|---|---|---|---|---|
| 2026-05-06 08:55 | 33.94060 | -118.38004 | 92 ft | 6 kts | 175° |
| 2026-05-06 08:55 | 33.93988 | -118.38019 | 93 ft | 15 kts | 242° |
| 2026-05-06 08:56 | 33.93980 | -118.38084 | 92 ft | 0 kts | 264° |
| 2026-05-06 08:56 | 33.93975 | -118.38130 | 93 ft | 25 kts | 261° |
| 2026-05-06 08:56 | 33.93930 | -118.38555 | 98 ft | 75 kts | 263° |
| 2026-05-06 08:56 | 33.93851 | -118.39328 | 115 ft | 109 kts | 261° |
| 2026-05-06 08:57 | 33.93780 | -118.40254 | 382 ft | 111 kts | 264° |
| 2026-05-06 08:57 | 33.93675 | -118.41185 | 611 ft | 117 kts | 257° |
| 2026-05-06 08:57 | 33.93511 | -118.42162 | 838 ft | 121 kts | 255° |
| 2026-05-06 08:57 | 33.93288 | -118.43171 | 1039 ft | 124 kts | 250° |
| 2026-05-06 08:58 | 33.93013 | -118.44131 | 1323 ft | 123 kts | 251° |
| 2026-05-06 08:58 | 33.93110 | -118.45093 | 1671 ft | 119 kts | 298° |
| 2026-05-06 08:58 | 33.93783 | -118.45700 | 1824 ft | 129 kts | 345° |
| 2026-05-06 08:58 | 33.94675 | -118.45921 | 2043 ft | 131 kts | 347° |
| 2026-05-06 08:59 | 33.95581 | -118.45953 | 2262 ft | 133 kts | 14° |
| 2026-05-06 08:59 | 33.96359 | -118.45350 | 2451 ft | 134 kts | 45° |
| 2026-05-06 08:59 | 33.96826 | -118.44406 | 2628 ft | 134 kts | 77° |
| 2026-05-06 08:59 | 33.96971 | -118.43310 | 2884 ft | 129 kts | 80° |
| 2026-05-06 09:00 | 33.97094 | -118.42236 | 3080 ft | 131 kts | 82° |
| 2026-05-06 09:00 | 33.97231 | -118.41148 | 3262 ft | 132 kts | 80° |
| 2026-05-06 09:00 | 33.97373 | -118.40045 | 3441 ft | 134 kts | 81° |
| 2026-05-06 09:00 | 33.97755 | -118.39044 | 3612 ft | 134 kts | 41° |
| 2026-05-06 09:01 | 33.98564 | -118.38512 | 3789 ft | 133 kts | 18° |
| 2026-05-06 09:01 | 33.99446 | -118.38153 | 3962 ft | 134 kts | 17° |
| 2026-05-06 09:01 | 34.00332 | -118.37782 | 4135 ft | 135 kts | 18° |
| 2026-05-06 09:01 | 34.01214 | -118.37386 | 4306 ft | 135 kts | 19° |
| 2026-05-06 09:02 | 34.02095 | -118.36972 | 4483 ft | 136 kts | 19° |
| 2026-05-06 09:02 | 34.02971 | -118.36548 | 4657 ft | 136 kts | 20° |
| 2026-05-06 09:02 | 34.03848 | -118.36117 | 4831 ft | 136 kts | 20° |
| 2026-05-06 09:02 | 34.04722 | -118.35684 | 5005 ft | 136 kts | 20° |
| 2026-05-06 09:03 | 34.05593 | -118.35252 | 5179 ft | 135 kts | 20° |
| 2026-05-06 09:03 | 34.06461 | -118.34820 | 5354 ft | 135 kts | 20° |
| 2026-05-06 09:03 | 34.07329 | -118.34390 | 5529 ft | 135 kts | 20° |
| 2026-05-06 09:03 | 34.08196 | -118.33957 | 5704 ft | 135 kts | 20° |
| 2026-05-06 09:04 | 34.09062 | -118.33526 | 5879 ft | 135 kts | 20° |
| 2026-05-06 09:04 | 34.09927 | -118.33097 | 6055 ft | 134 kts | 20° |
| 2026-05-06 09:04 | 34.10789 | -118.32668 | 6230 ft | 134 kts | 20° |
| 2026-05-06 09:04 | 34.11650 | -118.32240 | 6405 ft | 134 kts | 20° |
| 2026-05-06 09:05 | 34.12509 | -118.31812 | 6580 ft | 134 kts | 20° |
| 2026-05-06 09:05 | 34.13367 | -118.31384 | 6751 ft | 133 kts | 20° |
| 2026-05-06 09:05 | 34.14222 | -118.30958 | 6934 ft | 133 kts | 20° |
| 2026-05-06 09:05 | 34.15079 | -118.30532 | 7111 ft | 133 kts | 20° |
| 2026-05-06 09:06 | 34.15937 | -118.30104 | 7289 ft | 134 kts | 20° |
| 2026-05-06 09:06 | 34.16794 | -118.29677 | 7460 ft | 133 kts | 20° |
| 2026-05-06 09:06 | 34.17650 | -118.29250 | 7634 ft | 133 kts | 20° |
| 2026-05-06 09:06 | 34.18505 | -118.28823 | 7808 ft | 133 kts | 20° |
| 2026-05-06 09:07 | 34.19359 | -118.28397 | 7987 ft | 133 kts | 20° |
| 2026-05-06 09:07 | 34.20213 | -118.27972 | 8158 ft | 132 kts | 20° |
| 2026-05-06 09:07 | 34.21062 | -118.27548 | 8338 ft | 132 kts | 20° |
| 2026-05-06 09:07 | 34.21911 | -118.27124 | 8509 ft | 132 kts | 21° |
| 2026-05-06 09:08 | 34.22758 | -118.26701 | 8688 ft | 132 kts | 21° |
| 2026-05-06 09:08 | 34.23606 | -118.26277 | 8863 ft | 132 kts | 21° |
| 2026-05-06 09:08 | 34.24453 | -118.25854 | 9037 ft | 132 kts | 21° |
| 2026-05-06 09:08 | 34.25299 | -118.25431 | 9209 ft | 131 kts | 21° |
| 2026-05-06 09:09 | 34.26138 | -118.25013 | 9382 ft | 130 kts | 21° |
| 2026-05-06 09:09 | 34.26969 | -118.24598 | 9551 ft | 130 kts | 21° |
| 2026-05-06 09:09 | 34.27808 | -118.24180 | 9712 ft | 131 kts | 21° |
| 2026-05-06 09:09 | 34.28661 | -118.23753 | 9864 ft | 133 kts | 21° |
| 2026-05-06 09:10 | 34.29518 | -118.23324 | 10024 ft | 134 kts | 22° |
| 2026-05-06 09:10 | 34.30379 | -118.22892 | 10167 ft | 134 kts | 22° |
| 2026-05-06 09:10 | 34.31241 | -118.22460 | 10310 ft | 134 kts | 22° |
| 2026-05-06 09:10 | 34.32095 | -118.22034 | 10444 ft | 132 kts | 22° |
| 2026-05-06 09:11 | 34.32944 | -118.21609 | 10607 ft | 132 kts | 22° |
| 2026-05-06 09:11 | 34.33796 | -118.21182 | 10759 ft | 132 kts | 22° |
| 2026-05-06 09:11 | 34.34646 | -118.20756 | 10914 ft | 132 kts | 22° |
| 2026-05-06 09:11 | 34.35495 | -118.20331 | 11061 ft | 132 kts | 22° |
| 2026-05-06 09:12 | 34.36340 | -118.19908 | 11212 ft | 131 kts | 22° |
| 2026-05-06 09:12 | 34.37195 | -118.19479 | 11362 ft | 131 kts | 22° |
| 2026-05-06 09:12 | 34.38022 | -118.19065 | 11500 ft | 130 kts | 22° |
| 2026-05-06 09:12 | 34.38853 | -118.18649 | 11650 ft | 129 kts | 23° |
| 2026-05-06 09:13 | 34.39692 | -118.18229 | 11820 ft | 129 kts | 23° |
| 2026-05-06 09:13 | 34.40523 | -118.17812 | 11982 ft | 130 kts | 23° |
| 2026-05-06 09:13 | 34.41358 | -118.17394 | 12131 ft | 130 kts | 23° |
| 2026-05-06 09:13 | 34.42191 | -118.16977 | 12277 ft | 130 kts | 23° |
| 2026-05-06 09:14 | 34.43026 | -118.16563 | 12422 ft | 129 kts | 22° |
| 2026-05-06 09:14 | 34.43859 | -118.16156 | 12572 ft | 129 kts | 22° |
| 2026-05-06 09:14 | 34.44691 | -118.15750 | 12725 ft | 129 kts | 23° |
| 2026-05-06 09:14 | 34.45520 | -118.15341 | 12876 ft | 129 kts | 23° |
| 2026-05-06 09:15 | 34.46349 | -118.14928 | 13020 ft | 128 kts | 23° |
| 2026-05-06 09:15 | 34.47184 | -118.14514 | 13082 ft | 133 kts | 23° |
| 2026-05-06 09:15 | 34.48062 | -118.14075 | 13099 ft | 140 kts | 23° |
| 2026-05-06 09:15 | 34.48982 | -118.13610 | 13099 ft | 145 kts | 23° |
| 2026-05-06 09:16 | 34.49927 | -118.13132 | 13100 ft | 149 kts | 23° |
| 2026-05-06 09:16 | 34.50887 | -118.12648 | 13100 ft | 151 kts | 23° |
| 2026-05-06 09:16 | 34.51867 | -118.12153 | 13100 ft | 153 kts | 23° |
| 2026-05-06 09:16 | 34.52854 | -118.11656 | 13102 ft | 155 kts | 23° |
| 2026-05-06 09:17 | 34.53853 | -118.11154 | 13102 ft | 156 kts | 23° |
| 2026-05-06 09:17 | 34.54855 | -118.10649 | 13099 ft | 156 kts | 23° |
| 2026-05-06 09:17 | 34.55862 | -118.10142 | 13098 ft | 156 kts | 23° |
| 2026-05-06 09:17 | 34.56866 | -118.09637 | 13098 ft | 156 kts | 23° |
| 2026-05-06 09:18 | 34.57871 | -118.09132 | 13098 ft | 156 kts | 23° |
| 2026-05-06 09:18 | 34.58873 | -118.08628 | 13098 ft | 156 kts | 23° |
| 2026-05-06 09:18 | 34.59876 | -118.08121 | 13099 ft | 156 kts | 23° |
| 2026-05-06 09:18 | 34.60878 | -118.07615 | 13099 ft | 156 kts | 23° |
| 2026-05-06 09:19 | 34.61879 | -118.07110 | 13099 ft | 155 kts | 23° |
| 2026-05-06 09:19 | 34.62877 | -118.06611 | 13100 ft | 155 kts | 22° |
| 2026-05-06 09:19 | 34.63898 | -118.06194 | 13100 ft | 155 kts | 18° |
| 2026-05-06 09:19 | 34.64933 | -118.05832 | 13100 ft | 155 kts | 17° |
| 2026-05-06 09:20 | 34.65971 | -118.05473 | 13099 ft | 154 kts | 17° |
| 2026-05-06 09:20 | 34.67006 | -118.05119 | 13100 ft | 155 kts | 17° |
| 2026-05-06 09:20 | 34.68038 | -118.04763 | 13100 ft | 154 kts | 17° |
| 2026-05-06 09:20 | 34.69069 | -118.04405 | 13100 ft | 154 kts | 17° |
| 2026-05-06 09:21 | 34.70099 | -118.04047 | 13101 ft | 154 kts | 17° |
| 2026-05-06 09:21 | 34.71128 | -118.03689 | 13099 ft | 154 kts | 17° |
| 2026-05-06 09:21 | 34.71811 | -118.03451 | 13096 ft | 154 kts | 17° |
| 2026-05-06 09:21 | 34.72838 | -118.03091 | 13095 ft | 154 kts | 17° |
| 2026-05-06 09:22 | 34.73867 | -118.02730 | 13094 ft | 154 kts | 17° |
| 2026-05-06 09:22 | 34.74896 | -118.02369 | 13094 ft | 154 kts | 17° |
| 2026-05-06 09:22 | 34.76261 | -118.01891 | 13093 ft | 154 kts | 17° |
| 2026-05-06 09:22 | 34.76955 | -118.01649 | 13090 ft | 154 kts | 17° |
| 2026-05-06 09:23 | 34.77987 | -118.01288 | 13085 ft | 154 kts | 17° |
| 2026-05-06 09:23 | 34.79018 | -118.00926 | 13082 ft | 154 kts | 17° |
| 2026-05-06 09:23 | 34.80049 | -118.00566 | 13084 ft | 154 kts | 17° |
| 2026-05-06 09:23 | 34.81078 | -118.00204 | 13084 ft | 154 kts | 17° |
| 2026-05-06 09:24 | 34.82108 | -117.99844 | 13076 ft | 154 kts | 17° |
| 2026-05-06 09:24 | 34.83131 | -117.99485 | 13077 ft | 154 kts | 17° |
| 2026-05-06 09:24 | 34.84163 | -117.99124 | 13075 ft | 154 kts | 17° |
| 2026-05-06 09:24 | 34.85197 | -117.98762 | 13073 ft | 154 kts | 17° |
| 2026-05-06 09:25 | 34.86228 | -117.98400 | 13072 ft | 154 kts | 17° |
| 2026-05-06 09:25 | 34.87258 | -117.98039 | 13073 ft | 154 kts | 17° |
| 2026-05-06 09:25 | 34.88287 | -117.97679 | 13074 ft | 154 kts | 17° |
| 2026-05-06 09:25 | 34.89315 | -117.97318 | 13072 ft | 154 kts | 17° |
| 2026-05-06 09:26 | 34.90343 | -117.96956 | 13067 ft | 154 kts | 17° |
| 2026-05-06 09:26 | 34.91372 | -117.96595 | 13065 ft | 154 kts | 16° |
| 2026-05-06 09:26 | 34.92401 | -117.96234 | 13067 ft | 154 kts | 16° |
| 2026-05-06 09:26 | 34.93431 | -117.95873 | 13066 ft | 154 kts | 16° |
| 2026-05-06 09:27 | 34.94463 | -117.95510 | 13064 ft | 154 kts | 16° |
| 2026-05-06 09:27 | 34.95494 | -117.95147 | 13062 ft | 154 kts | 16° |
| 2026-05-06 09:27 | 34.96524 | -117.94785 | 13062 ft | 154 kts | 16° |
| 2026-05-06 09:27 | 34.97553 | -117.94424 | 13063 ft | 154 kts | 16° |
| 2026-05-06 09:28 | 34.98581 | -117.94061 | 13065 ft | 154 kts | 16° |
| 2026-05-06 09:28 | 34.99611 | -117.93699 | 13065 ft | 154 kts | 16° |
| 2026-05-06 09:28 | 35.00641 | -117.93337 | 13063 ft | 154 kts | 16° |
| 2026-05-06 09:28 | 35.01674 | -117.92974 | 13062 ft | 154 kts | 16° |
| 2026-05-06 09:29 | 35.02704 | -117.92614 | 13062 ft | 154 kts | 16° |
| 2026-05-06 09:29 | 35.03730 | -117.92253 | 13062 ft | 154 kts | 16° |
| 2026-05-06 09:29 | 35.04756 | -117.91893 | 13064 ft | 153 kts | 16° |
| 2026-05-06 09:29 | 35.05779 | -117.91533 | 13066 ft | 153 kts | 16° |
| 2026-05-06 09:30 | 35.06803 | -117.91173 | 13065 ft | 153 kts | 16° |
| 2026-05-06 09:30 | 35.07826 | -117.90812 | 13063 ft | 153 kts | 16° |
| 2026-05-06 09:30 | 35.08849 | -117.90453 | 13063 ft | 153 kts | 16° |
| 2026-05-06 09:30 | 35.09869 | -117.90093 | 13063 ft | 153 kts | 16° |
| 2026-05-06 09:31 | 35.10888 | -117.89734 | 13062 ft | 152 kts | 16° |
| 2026-05-06 09:31 | 35.11906 | -117.89376 | 13063 ft | 152 kts | 16° |
| 2026-05-06 09:31 | 35.12921 | -117.89017 | 13069 ft | 152 kts | 16° |
| 2026-05-06 09:31 | 35.13937 | -117.88659 | 13068 ft | 152 kts | 16° |
| 2026-05-06 09:32 | 35.14956 | -117.88298 | 13066 ft | 152 kts | 16° |
| 2026-05-06 09:32 | 35.15975 | -117.87938 | 13065 ft | 152 kts | 16° |
| 2026-05-06 09:32 | 35.16994 | -117.87578 | 13062 ft | 152 kts | 16° |
| 2026-05-06 09:32 | 35.18014 | -117.87217 | 13058 ft | 153 kts | 16° |
| 2026-05-06 09:33 | 35.19035 | -117.86856 | 13056 ft | 153 kts | 15° |
| 2026-05-06 09:33 | 35.20057 | -117.86495 | 13055 ft | 153 kts | 15° |
| 2026-05-06 09:33 | 35.21077 | -117.86134 | 13052 ft | 152 kts | 15° |
| 2026-05-06 09:33 | 35.22095 | -117.85774 | 13048 ft | 152 kts | 15° |
| 2026-05-06 09:34 | 35.23110 | -117.85414 | 13046 ft | 152 kts | 15° |
| 2026-05-06 09:34 | 35.24124 | -117.85057 | 13045 ft | 152 kts | 15° |
| 2026-05-06 09:34 | 35.25137 | -117.84698 | 13039 ft | 151 kts | 15° |
| 2026-05-06 09:34 | 35.26150 | -117.84339 | 13041 ft | 151 kts | 15° |
| 2026-05-06 09:35 | 35.27162 | -117.83980 | 13036 ft | 152 kts | 15° |
| 2026-05-06 09:35 | 35.28179 | -117.83621 | 13042 ft | 152 kts | 15° |
| 2026-05-06 09:35 | 35.29197 | -117.83260 | 13031 ft | 153 kts | 15° |
| 2026-05-06 09:35 | 35.30219 | -117.82899 | 13036 ft | 153 kts | 15° |
| 2026-05-06 09:36 | 35.31243 | -117.82535 | 13030 ft | 153 kts | 15° |
| 2026-05-06 09:36 | 35.32269 | -117.82171 | 13021 ft | 154 kts | 15° |
| 2026-05-06 09:36 | 35.33296 | -117.81805 | 13019 ft | 154 kts | 15° |
| 2026-05-06 09:36 | 35.34321 | -117.81440 | 13016 ft | 153 kts | 15° |
| 2026-05-06 09:37 | 35.35347 | -117.81077 | 13013 ft | 153 kts | 15° |
| 2026-05-06 09:37 | 35.36369 | -117.80714 | 13009 ft | 153 kts | 15° |
| 2026-05-06 09:37 | 35.37388 | -117.80352 | 13006 ft | 152 kts | 15° |
| 2026-05-06 09:37 | 35.38407 | -117.79991 | 13001 ft | 152 kts | 15° |
| 2026-05-06 09:38 | 35.39425 | -117.79629 | 12995 ft | 152 kts | 15° |
| 2026-05-06 09:38 | 35.40443 | -117.79267 | 12992 ft | 152 kts | 15° |
| 2026-05-06 09:38 | 35.41457 | -117.78905 | 12988 ft | 152 kts | 15° |
| 2026-05-06 09:38 | 35.42472 | -117.78544 | 12978 ft | 151 kts | 15° |
| 2026-05-06 09:39 | 35.43479 | -117.78186 | 12980 ft | 150 kts | 15° |
| 2026-05-06 09:39 | 35.44486 | -117.77828 | 12983 ft | 151 kts | 15° |
| 2026-05-06 09:39 | 35.45500 | -117.77467 | 12981 ft | 152 kts | 15° |
| 2026-05-06 09:39 | 35.46517 | -117.77105 | 12976 ft | 153 kts | 15° |
| 2026-05-06 09:40 | 35.47532 | -117.76742 | 12968 ft | 152 kts | 15° |
| 2026-05-06 09:40 | 35.48546 | -117.76379 | 12961 ft | 151 kts | 15° |
| 2026-05-06 09:40 | 35.50572 | -117.75654 | 12965 ft | 152 kts | 15° |
| 2026-05-06 09:41 | 35.51591 | -117.75290 | 12957 ft | 153 kts | 15° |
| 2026-05-06 09:41 | 35.52612 | -117.74926 | 12957 ft | 153 kts | 15° |
| 2026-05-06 09:41 | 35.53632 | -117.74561 | 12951 ft | 153 kts | 15° |
| 2026-05-06 09:41 | 35.54651 | -117.74196 | 12952 ft | 153 kts | 15° |
| 2026-05-06 09:42 | 35.55672 | -117.73833 | 12943 ft | 153 kts | 15° |
| 2026-05-06 09:42 | 35.56692 | -117.73468 | 12951 ft | 153 kts | 15° |
| 2026-05-06 09:42 | 35.57711 | -117.73105 | 12950 ft | 153 kts | 15° |
| 2026-05-06 09:42 | 35.58731 | -117.72741 | 12942 ft | 152 kts | 15° |
| 2026-05-06 09:43 | 35.59746 | -117.72379 | 12942 ft | 152 kts | 15° |
| 2026-05-06 09:43 | 35.60762 | -117.72016 | 12938 ft | 152 kts | 15° |
| 2026-05-06 09:43 | 35.61778 | -117.71653 | 12937 ft | 152 kts | 15° |
| 2026-05-06 09:43 | 35.62793 | -117.71291 | 12936 ft | 152 kts | 15° |
| 2026-05-06 09:44 | 35.63806 | -117.70929 | 12934 ft | 152 kts | 15° |
| 2026-05-06 09:44 | 35.64819 | -117.70566 | 12934 ft | 151 kts | 15° |
| 2026-05-06 09:44 | 35.65834 | -117.70203 | 12933 ft | 151 kts | 15° |
| 2026-05-06 09:44 | 35.66844 | -117.69843 | 12934 ft | 151 kts | 15° |
| 2026-05-06 09:45 | 35.67854 | -117.69483 | 12934 ft | 151 kts | 15° |
| 2026-05-06 09:45 | 35.68849 | -117.69067 | 12932 ft | 151 kts | 23° |
| 2026-05-06 09:45 | 35.69746 | -117.68381 | 12935 ft | 152 kts | 31° |
| 2026-05-06 09:45 | 35.70621 | -117.67644 | 12935 ft | 152 kts | 31° |
| 2026-05-06 09:46 | 35.71496 | -117.66913 | 12934 ft | 152 kts | 31° |
| 2026-05-06 09:46 | 35.72374 | -117.66180 | 12933 ft | 152 kts | 31° |
| 2026-05-06 09:46 | 35.73250 | -117.65449 | 12934 ft | 152 kts | 31° |
| 2026-05-06 09:46 | 35.74127 | -117.64718 | 12933 ft | 152 kts | 31° |
| 2026-05-06 09:47 | 35.75003 | -117.63988 | 12933 ft | 152 kts | 31° |
| 2026-05-06 09:47 | 35.75880 | -117.63256 | 12935 ft | 153 kts | 31° |
| 2026-05-06 09:47 | 35.76758 | -117.62523 | 12935 ft | 152 kts | 31° |
| 2026-05-06 09:47 | 35.77635 | -117.61791 | 12933 ft | 152 kts | 31° |
| 2026-05-06 09:48 | 35.78509 | -117.61059 | 12936 ft | 152 kts | 31° |
| 2026-05-06 09:48 | 35.79383 | -117.60330 | 12944 ft | 152 kts | 31° |
| 2026-05-06 09:48 | 35.80256 | -117.59600 | 12941 ft | 152 kts | 31° |
| 2026-05-06 09:48 | 35.81130 | -117.58870 | 12939 ft | 152 kts | 31° |
| 2026-05-06 09:49 | 35.82003 | -117.58140 | 12949 ft | 152 kts | 31° |
| 2026-05-06 09:49 | 35.82876 | -117.57409 | 12944 ft | 152 kts | 31° |
| 2026-05-06 09:49 | 35.83749 | -117.56680 | 12940 ft | 152 kts | 31° |
| 2026-05-06 09:49 | 35.84621 | -117.55951 | 12942 ft | 151 kts | 31° |
| 2026-05-06 09:50 | 35.85492 | -117.55222 | 12949 ft | 151 kts | 31° |
| 2026-05-06 09:50 | 35.86363 | -117.54494 | 12950 ft | 152 kts | 31° |
| 2026-05-06 09:50 | 35.87236 | -117.53761 | 12948 ft | 152 kts | 31° |
| 2026-05-06 09:50 | 35.88107 | -117.53027 | 12946 ft | 151 kts | 31° |
| 2026-05-06 09:51 | 35.88978 | -117.52298 | 12952 ft | 151 kts | 31° |
| 2026-05-06 09:51 | 35.89854 | -117.51565 | 12960 ft | 153 kts | 31° |
| 2026-05-06 09:51 | 35.90731 | -117.50828 | 12954 ft | 152 kts | 31° |
| 2026-05-06 09:51 | 35.91604 | -117.50095 | 12959 ft | 152 kts | 31° |
| 2026-05-06 09:52 | 35.92476 | -117.49362 | 12961 ft | 152 kts | 31° |
| 2026-05-06 09:52 | 35.93352 | -117.48628 | 12967 ft | 153 kts | 31° |
| 2026-05-06 09:52 | 35.94233 | -117.47889 | 12965 ft | 154 kts | 31° |
| 2026-05-06 09:52 | 35.95119 | -117.47148 | 12962 ft | 154 kts | 31° |
| 2026-05-06 09:53 | 35.96002 | -117.46405 | 12968 ft | 154 kts | 31° |
| 2026-05-06 09:53 | 35.96889 | -117.45662 | 12969 ft | 154 kts | 31° |
| 2026-05-06 09:53 | 35.97777 | -117.44915 | 12967 ft | 154 kts | 31° |
| 2026-05-06 09:53 | 35.98662 | -117.44170 | 12971 ft | 154 kts | 31° |
| 2026-05-06 09:54 | 35.99549 | -117.43423 | 12978 ft | 155 kts | 31° |
| 2026-05-06 09:54 | 36.00438 | -117.42677 | 12976 ft | 154 kts | 31° |
| 2026-05-06 09:54 | 36.01325 | -117.41930 | 12977 ft | 154 kts | 31° |
| 2026-05-06 09:54 | 36.02210 | -117.41186 | 12978 ft | 154 kts | 31° |
| 2026-05-06 09:55 | 36.03094 | -117.40441 | 12985 ft | 154 kts | 31° |
| 2026-05-06 09:55 | 36.03984 | -117.39694 | 12984 ft | 155 kts | 31° |
| 2026-05-06 09:55 | 36.04873 | -117.38945 | 12982 ft | 154 kts | 31° |
| 2026-05-06 09:55 | 36.05761 | -117.38198 | 12984 ft | 154 kts | 31° |
| 2026-05-06 09:56 | 36.06644 | -117.37454 | 12988 ft | 154 kts | 31° |
| 2026-05-06 09:56 | 36.07527 | -117.36709 | 12988 ft | 154 kts | 31° |
| 2026-05-06 09:56 | 36.08408 | -117.35967 | 12988 ft | 153 kts | 31° |
| 2026-05-06 09:56 | 36.09289 | -117.35224 | 12993 ft | 153 kts | 31° |
| 2026-05-06 09:57 | 36.10170 | -117.34482 | 12998 ft | 153 kts | 31° |
| 2026-05-06 09:57 | 36.11051 | -117.33739 | 12999 ft | 153 kts | 31° |
| 2026-05-06 09:57 | 36.11936 | -117.32993 | 12999 ft | 154 kts | 31° |
| 2026-05-06 09:57 | 36.12817 | -117.32248 | 12997 ft | 153 kts | 31° |
| 2026-05-06 09:58 | 36.13697 | -117.31504 | 12996 ft | 153 kts | 31° |
| 2026-05-06 09:58 | 36.14576 | -117.30762 | 13000 ft | 153 kts | 31° |
| 2026-05-06 09:58 | 36.15453 | -117.30022 | 13003 ft | 152 kts | 31° |
| 2026-05-06 09:58 | 36.16328 | -117.29282 | 13005 ft | 152 kts | 31° |
| 2026-05-06 09:59 | 36.17203 | -117.28542 | 13007 ft | 152 kts | 31° |
| 2026-05-06 09:59 | 36.18079 | -117.27802 | 13007 ft | 152 kts | 31° |
| 2026-05-06 09:59 | 36.18955 | -117.27062 | 13008 ft | 152 kts | 31° |
| 2026-05-06 09:59 | 36.19831 | -117.26320 | 13008 ft | 152 kts | 31° |
| 2026-05-06 10:00 | 36.20705 | -117.25579 | 13007 ft | 152 kts | 31° |
| 2026-05-06 10:00 | 36.21580 | -117.24840 | 13007 ft | 152 kts | 31° |
| 2026-05-06 10:00 | 36.22451 | -117.24102 | 13012 ft | 152 kts | 31° |
| 2026-05-06 10:00 | 36.23039 | -117.23604 | 13011 ft | 151 kts | 31° |
| 2026-05-06 10:01 | 36.23906 | -117.22869 | 13018 ft | 151 kts | 31° |
| 2026-05-06 10:01 | 36.24776 | -117.22133 | 13019 ft | 152 kts | 31° |
| 2026-05-06 10:01 | 36.25651 | -117.21393 | 13023 ft | 153 kts | 31° |
| 2026-05-06 10:01 | 36.26533 | -117.20644 | 13025 ft | 154 kts | 31° |
| 2026-05-06 10:02 | 36.27412 | -117.19901 | 13018 ft | 153 kts | 31° |
| 2026-05-06 10:02 | 36.28288 | -117.19159 | 13029 ft | 153 kts | 31° |
| 2026-05-06 10:02 | 36.29165 | -117.18416 | 13033 ft | 152 kts | 31° |
| 2026-05-06 10:02 | 36.30040 | -117.17673 | 13057 ft | 152 kts | 31° |
| 2026-05-06 10:03 | 36.30905 | -117.16940 | 13056 ft | 153 kts | 31° |
| 2026-05-06 10:03 | 36.31791 | -117.16191 | 13062 ft | 152 kts | 31° |
| 2026-05-06 10:03 | 36.32666 | -117.15450 | 13067 ft | 153 kts | 31° |
| 2026-05-06 10:03 | 36.33546 | -117.14703 | 13067 ft | 153 kts | 31° |
| 2026-05-06 10:04 | 36.34427 | -117.13952 | 13067 ft | 154 kts | 31° |
| 2026-05-06 10:04 | 36.35311 | -117.13201 | 13066 ft | 154 kts | 31° |
| 2026-05-06 10:04 | 36.36198 | -117.12446 | 13064 ft | 155 kts | 31° |
| 2026-05-06 10:04 | 36.37075 | -117.11700 | 13062 ft | 155 kts | 31° |
| 2026-05-06 10:05 | 36.37961 | -117.10946 | 13055 ft | 154 kts | 31° |
| 2026-05-06 10:05 | 36.38844 | -117.10194 | 13062 ft | 153 kts | 31° |
| 2026-05-06 10:05 | 36.39721 | -117.09447 | 13062 ft | 153 kts | 31° |
| 2026-05-06 10:05 | 36.40598 | -117.08700 | 13060 ft | 153 kts | 31° |
| 2026-05-06 10:06 | 36.41476 | -117.07954 | 13065 ft | 153 kts | 31° |
| 2026-05-06 10:06 | 36.42355 | -117.07209 | 13068 ft | 153 kts | 31° |
| 2026-05-06 10:06 | 36.43236 | -117.06459 | 13066 ft | 154 kts | 31° |
| 2026-05-06 10:06 | 36.44118 | -117.05703 | 13069 ft | 154 kts | 31° |
| 2026-05-06 10:07 | 36.45003 | -117.04948 | 13064 ft | 154 kts | 31° |
| 2026-05-06 10:07 | 36.45886 | -117.04196 | 13056 ft | 154 kts | 31° |
| 2026-05-06 10:07 | 36.46768 | -117.03444 | 13060 ft | 154 kts | 31° |
| 2026-05-06 10:07 | 36.47649 | -117.02693 | 13050 ft | 153 kts | 31° |
| 2026-05-06 10:08 | 36.48525 | -117.01942 | 13055 ft | 153 kts | 31° |
| 2026-05-06 10:08 | 36.49404 | -117.01192 | 13062 ft | 154 kts | 31° |
| 2026-05-06 10:08 | 36.50289 | -117.00437 | 13061 ft | 155 kts | 31° |
| 2026-05-06 10:08 | 36.51176 | -116.99680 | 13060 ft | 155 kts | 31° |
| 2026-05-06 10:09 | 36.52066 | -116.98918 | 13055 ft | 155 kts | 31° |
| 2026-05-06 10:09 | 36.52957 | -116.98157 | 13051 ft | 155 kts | 31° |
| 2026-05-06 10:09 | 36.53846 | -116.97396 | 13051 ft | 155 kts | 31° |
| 2026-05-06 10:09 | 36.54733 | -116.96636 | 13051 ft | 155 kts | 31° |
| 2026-05-06 10:10 | 36.55622 | -116.95877 | 13053 ft | 155 kts | 31° |
| 2026-05-06 10:10 | 36.56509 | -116.95118 | 13053 ft | 155 kts | 31° |
| 2026-05-06 10:10 | 36.57395 | -116.94359 | 13054 ft | 155 kts | 31° |
| 2026-05-06 10:10 | 36.58282 | -116.93601 | 13054 ft | 155 kts | 31° |
| 2026-05-06 10:11 | 36.59168 | -116.92841 | 13053 ft | 155 kts | 31° |
| 2026-05-06 10:11 | 36.60055 | -116.92083 | 13052 ft | 155 kts | 31° |
| 2026-05-06 10:11 | 36.60942 | -116.91322 | 13048 ft | 155 kts | 31° |
| 2026-05-06 10:11 | 36.61829 | -116.90561 | 13046 ft | 155 kts | 31° |
| 2026-05-06 10:12 | 36.62725 | -116.89793 | 13046 ft | 155 kts | 31° |
| 2026-05-06 10:12 | 36.63609 | -116.89032 | 13052 ft | 154 kts | 31° |
| 2026-05-06 10:12 | 36.64469 | -116.88288 | 13175 ft | 147 kts | 31° |
| 2026-05-06 10:12 | 36.65295 | -116.87580 | 13318 ft | 142 kts | 31° |
| 2026-05-06 10:13 | 36.66097 | -116.86892 | 13465 ft | 138 kts | 31° |
| 2026-05-06 10:13 | 36.66886 | -116.86219 | 13625 ft | 137 kts | 31° |
| 2026-05-06 10:13 | 36.67665 | -116.85551 | 13772 ft | 135 kts | 31° |
| 2026-05-06 10:13 | 36.68434 | -116.84887 | 13913 ft | 134 kts | 31° |
| 2026-05-06 10:14 | 36.69194 | -116.84232 | 14072 ft | 132 kts | 31° |
| 2026-05-06 10:14 | 36.69954 | -116.83584 | 14236 ft | 132 kts | 31° |
| 2026-05-06 10:14 | 36.70710 | -116.82938 | 14386 ft | 131 kts | 31° |
| 2026-05-06 10:14 | 36.71462 | -116.82291 | 14541 ft | 131 kts | 31° |
| 2026-05-06 10:15 | 36.72214 | -116.81642 | 14693 ft | 131 kts | 31° |
| 2026-05-06 10:15 | 36.72965 | -116.80995 | 14842 ft | 131 kts | 31° |
| 2026-05-06 10:15 | 36.73718 | -116.80349 | 14996 ft | 131 kts | 31° |
| 2026-05-06 10:15 | 36.74467 | -116.79701 | 15140 ft | 131 kts | 31° |
| 2026-05-06 10:16 | 36.75216 | -116.79056 | 15294 ft | 131 kts | 31° |
| 2026-05-06 10:16 | 36.75962 | -116.78412 | 15443 ft | 130 kts | 31° |
| 2026-05-06 10:16 | 36.76707 | -116.77769 | 15591 ft | 130 kts | 31° |
| 2026-05-06 10:16 | 36.77448 | -116.77131 | 15739 ft | 129 kts | 31° |
| 2026-05-06 10:17 | 36.78188 | -116.76493 | 15888 ft | 129 kts | 31° |
| 2026-05-06 10:17 | 36.78923 | -116.75859 | 16021 ft | 129 kts | 31° |
| 2026-05-06 10:17 | 36.79697 | -116.75222 | 16046 ft | 136 kts | 25° |
| 2026-05-06 10:17 | 36.80630 | -116.74967 | 16053 ft | 142 kts | 359° |
| 2026-05-06 10:18 | 36.81631 | -116.75158 | 16054 ft | 148 kts | 351° |
| 2026-05-06 10:18 | 36.82651 | -116.75438 | 16056 ft | 152 kts | 350° |
| 2026-05-06 10:18 | 36.83688 | -116.75741 | 16051 ft | 154 kts | 349° |
| 2026-05-06 10:18 | 36.84737 | -116.76048 | 16053 ft | 156 kts | 350° |
| 2026-05-06 10:19 | 36.85796 | -116.76350 | 16050 ft | 156 kts | 350° |
| 2026-05-06 10:19 | 36.86862 | -116.76645 | 16051 ft | 157 kts | 351° |
| 2026-05-06 10:19 | 36.87932 | -116.76937 | 16050 ft | 157 kts | 351° |
| 2026-05-06 10:19 | 36.89003 | -116.77227 | 16052 ft | 158 kts | 351° |
| 2026-05-06 10:20 | 36.90075 | -116.77513 | 16052 ft | 158 kts | 351° |
| 2026-05-06 10:20 | 36.91151 | -116.77801 | 16054 ft | 158 kts | 351° |
| 2026-05-06 10:20 | 36.92228 | -116.78087 | 16056 ft | 158 kts | 351° |
| 2026-05-06 10:20 | 36.93306 | -116.78373 | 16054 ft | 158 kts | 351° |
| 2026-05-06 10:21 | 36.94383 | -116.78660 | 16051 ft | 158 kts | 351° |
| 2026-05-06 10:21 | 36.95457 | -116.78946 | 16052 ft | 158 kts | 351° |
| 2026-05-06 10:21 | 36.96532 | -116.79231 | 16059 ft | 159 kts | 351° |
| 2026-05-06 10:21 | 36.97614 | -116.79517 | 16058 ft | 159 kts | 351° |
| 2026-05-06 10:22 | 36.98696 | -116.79805 | 16059 ft | 159 kts | 351° |
| 2026-05-06 10:22 | 36.99778 | -116.80093 | 16061 ft | 159 kts | 351° |
| 2026-05-06 10:22 | 37.00859 | -116.80380 | 16064 ft | 159 kts | 351° |
| 2026-05-06 10:22 | 37.01939 | -116.80667 | 16063 ft | 159 kts | 351° |
| 2026-05-06 10:23 | 37.03022 | -116.80957 | 16065 ft | 159 kts | 351° |
| 2026-05-06 10:23 | 37.04107 | -116.81246 | 16064 ft | 159 kts | 351° |
| 2026-05-06 10:23 | 37.05191 | -116.81534 | 16061 ft | 159 kts | 351° |
| 2026-05-06 10:23 | 37.06272 | -116.81822 | 16061 ft | 159 kts | 351° |
| 2026-05-06 10:24 | 37.07352 | -116.82110 | 16060 ft | 158 kts | 351° |
| 2026-05-06 10:24 | 37.08428 | -116.82398 | 16062 ft | 158 kts | 351° |
| 2026-05-06 10:24 | 37.09502 | -116.82684 | 16066 ft | 158 kts | 351° |
| 2026-05-06 10:24 | 37.10580 | -116.82971 | 16068 ft | 159 kts | 351° |
| 2026-05-06 10:25 | 37.11662 | -116.83259 | 16066 ft | 159 kts | 351° |
| 2026-05-06 10:25 | 37.12746 | -116.83549 | 16064 ft | 159 kts | 351° |
| 2026-05-06 10:25 | 37.13830 | -116.83838 | 16066 ft | 159 kts | 351° |
| 2026-05-06 10:25 | 37.14912 | -116.84128 | 16068 ft | 159 kts | 351° |
| 2026-05-06 10:26 | 37.15991 | -116.84416 | 16070 ft | 158 kts | 351° |
| 2026-05-06 10:26 | 37.17069 | -116.84704 | 16071 ft | 158 kts | 351° |
| 2026-05-06 10:26 | 37.18145 | -116.84992 | 16072 ft | 158 kts | 351° |
| 2026-05-06 10:26 | 37.19222 | -116.85278 | 16072 ft | 158 kts | 351° |
| 2026-05-06 10:27 | 37.20300 | -116.85567 | 16071 ft | 158 kts | 351° |
| 2026-05-06 10:27 | 37.21377 | -116.85857 | 16073 ft | 158 kts | 350° |
| 2026-05-06 10:27 | 37.22456 | -116.86148 | 16075 ft | 159 kts | 351° |
| 2026-05-06 10:27 | 37.23536 | -116.86438 | 16073 ft | 159 kts | 350° |
| 2026-05-06 10:28 | 37.24617 | -116.86731 | 16075 ft | 159 kts | 350° |
| 2026-05-06 10:28 | 37.25700 | -116.87021 | 16074 ft | 159 kts | 351° |
| 2026-05-06 10:28 | 37.26782 | -116.87311 | 16071 ft | 159 kts | 351° |
| 2026-05-06 10:28 | 37.27861 | -116.87598 | 16070 ft | 158 kts | 351° |
| 2026-05-06 10:29 | 37.28939 | -116.87888 | 16072 ft | 159 kts | 351° |
| 2026-05-06 10:29 | 37.30017 | -116.88177 | 16075 ft | 158 kts | 351° |
| 2026-05-06 10:29 | 37.31092 | -116.88465 | 16075 ft | 158 kts | 350° |
| 2026-05-06 10:29 | 37.32164 | -116.88754 | 16078 ft | 157 kts | 351° |
| 2026-05-06 10:30 | 37.33236 | -116.89042 | 16080 ft | 157 kts | 351° |
| 2026-05-06 10:30 | 37.34306 | -116.89329 | 16082 ft | 157 kts | 350° |
| 2026-05-06 10:30 | 37.35379 | -116.89618 | 16083 ft | 158 kts | 351° |
| 2026-05-06 10:30 | 37.36453 | -116.89905 | 16083 ft | 158 kts | 351° |
| 2026-05-06 10:31 | 37.37523 | -116.90193 | 16083 ft | 158 kts | 351° |
| 2026-05-06 10:31 | 37.38599 | -116.90480 | 16085 ft | 158 kts | 351° |
| 2026-05-06 10:31 | 37.39675 | -116.90767 | 16081 ft | 158 kts | 351° |
| 2026-05-06 10:31 | 37.40750 | -116.91057 | 16082 ft | 158 kts | 351° |
| 2026-05-06 10:32 | 37.41826 | -116.91348 | 16084 ft | 158 kts | 351° |
| 2026-05-06 10:32 | 37.42897 | -116.91637 | 16082 ft | 157 kts | 352° |
| 2026-05-06 10:32 | 37.43965 | -116.91926 | 16082 ft | 157 kts | 352° |
| 2026-05-06 10:32 | 37.45031 | -116.92217 | 16082 ft | 157 kts | 352° |
| 2026-05-06 10:33 | 37.46097 | -116.92504 | 16081 ft | 156 kts | 352° |
| 2026-05-06 10:33 | 37.47159 | -116.92786 | 16084 ft | 156 kts | 352° |
| 2026-05-06 10:33 | 37.48225 | -116.93070 | 15985 ft | 159 kts | 352° |
| 2026-05-06 10:33 | 37.49306 | -116.93360 | 15774 ft | 159 kts | 352° |
| 2026-05-06 10:34 | 37.50373 | -116.93645 | 15524 ft | 155 kts | 352° |
| 2026-05-06 10:34 | 37.51413 | -116.93926 | 15297 ft | 152 kts | 352° |
| 2026-05-06 10:34 | 37.52448 | -116.94207 | 15071 ft | 151 kts | 352° |
| 2026-05-06 10:34 | 37.53474 | -116.94486 | 14852 ft | 152 kts | 352° |
| 2026-05-06 10:35 | 37.54522 | -116.94769 | 14630 ft | 156 kts | 352° |
| 2026-05-06 10:35 | 37.55587 | -116.95058 | 14409 ft | 158 kts | 352° |
| 2026-05-06 10:35 | 37.56665 | -116.95340 | 14188 ft | 159 kts | 352° |
| 2026-05-06 10:35 | 37.57751 | -116.95618 | 13962 ft | 160 kts | 352° |
| 2026-05-06 10:36 | 37.58840 | -116.95904 | 13734 ft | 160 kts | 352° |
| 2026-05-06 10:36 | 37.59925 | -116.96192 | 13507 ft | 160 kts | 352° |
| 2026-05-06 10:36 | 37.61010 | -116.96483 | 13278 ft | 159 kts | 352° |
| 2026-05-06 10:36 | 37.62093 | -116.96776 | 13049 ft | 159 kts | 352° |
| 2026-05-06 10:37 | 37.63172 | -116.97068 | 12823 ft | 158 kts | 352° |
| 2026-05-06 10:37 | 37.64250 | -116.97360 | 12594 ft | 158 kts | 352° |
| 2026-05-06 10:37 | 37.65318 | -116.97650 | 12369 ft | 157 kts | 352° |
| 2026-05-06 10:37 | 37.66386 | -116.97939 | 12142 ft | 157 kts | 352° |
| 2026-05-06 10:38 | 37.67453 | -116.98229 | 11915 ft | 156 kts | 351° |
| 2026-05-06 10:38 | 37.68158 | -116.98420 | 11767 ft | 156 kts | 351° |
| 2026-05-06 10:38 | 37.69222 | -116.98708 | 11543 ft | 157 kts | 351° |
| 2026-05-06 10:38 | 37.70294 | -116.98997 | 11315 ft | 157 kts | 351° |
| 2026-05-06 10:39 | 37.71367 | -116.99289 | 11086 ft | 158 kts | 350° |
| 2026-05-06 10:39 | 37.72447 | -116.99580 | 10862 ft | 159 kts | 350° |
| 2026-05-06 10:39 | 37.73534 | -116.99875 | 10634 ft | 160 kts | 349° |
| 2026-05-06 10:39 | 37.74629 | -117.00174 | 10414 ft | 161 kts | 349° |
| 2026-05-06 10:40 | 37.75730 | -117.00473 | 10188 ft | 162 kts | 349° |
| 2026-05-06 10:40 | 37.76837 | -117.00774 | 9963 ft | 163 kts | 348° |
| 2026-05-06 10:40 | 37.77949 | -117.01076 | 9743 ft | 164 kts | 348° |
| 2026-05-06 10:40 | 37.79071 | -117.01382 | 9512 ft | 165 kts | 348° |
| 2026-05-06 10:41 | 37.80203 | -117.01689 | 9290 ft | 167 kts | 347° |
| 2026-05-06 10:41 | 37.81342 | -117.01999 | 9066 ft | 168 kts | 347° |
| 2026-05-06 10:41 | 37.82494 | -117.02312 | 8842 ft | 170 kts | 347° |
| 2026-05-06 10:41 | 37.83651 | -117.02629 | 8616 ft | 171 kts | 347° |
| 2026-05-06 10:42 | 37.84813 | -117.02945 | 8390 ft | 171 kts | 347° |
| 2026-05-06 10:42 | 37.85976 | -117.03263 | 8163 ft | 171 kts | 347° |
| 2026-05-06 10:42 | 37.87141 | -117.03580 | 7935 ft | 171 kts | 347° |
| 2026-05-06 10:42 | 37.88302 | -117.03897 | 7714 ft | 171 kts | 347° |
| 2026-05-06 10:43 | 37.89463 | -117.04215 | 7485 ft | 171 kts | 347° |
| 2026-05-06 10:43 | 37.90639 | -117.04538 | 7256 ft | 175 kts | 348° |
| 2026-05-06 10:43 | 37.91832 | -117.04865 | 7033 ft | 176 kts | 348° |
| 2026-05-06 10:44 | 37.94226 | -117.05520 | 6585 ft | 174 kts | 348° |
| 2026-05-06 10:44 | 37.95385 | -117.05833 | 6471 ft | 164 kts | 348° |
| 2026-05-06 10:44 | 37.96460 | -117.06127 | 6486 ft | 154 kts | 348° |
| 2026-05-06 10:44 | 37.97487 | -117.06409 | 6492 ft | 149 kts | 348° |
| 2026-05-06 10:45 | 37.98493 | -117.06682 | 6496 ft | 147 kts | 348° |
| 2026-05-06 10:45 | 37.99488 | -117.06955 | 6500 ft | 145 kts | 348° |
| 2026-05-06 10:45 | 38.00471 | -117.07224 | 6500 ft | 144 kts | 348° |
| 2026-05-06 10:45 | 38.01450 | -117.07492 | 6498 ft | 143 kts | 347° |
| 2026-05-06 10:46 | 38.02394 | -117.07815 | 6160 ft | 139 kts | 347° |
| 2026-05-06 10:46 | 38.03323 | -117.08098 | 5800 ft | 134 kts | 345° |
| 2026-05-06 10:46 | 38.04170 | -117.08392 | 5617 ft | 115 kts | 358° |
| 2026-05-06 10:46 | 38.04886 | -117.08640 | 5469 ft | 98 kts | 344° |
| 2026-05-06 10:47 | 38.05475 | -117.08839 | 5417 ft | 77 kts | 345° |
| 2026-05-06 10:47 | 38.05934 | -117.08995 | 5420 ft | 53 kts | 346° |
| 2026-05-06 10:47 | 38.06192 | -117.09084 | 5428 ft | 37 kts | 345° |
| 2026-05-06 10:47 | 38.06443 | -117.09169 | 5420 ft | 38 kts | 346° |
| 2026-05-06 10:48 | 38.06699 | -117.09255 | 5437 ft | 33 kts | 343° |
| 2026-05-06 10:48 | 38.06723 | -117.09396 | 5439 ft | 16 kts | 250° |
| 2026-05-06 10:48 | 38.06666 | -117.09469 | 5439 ft | 17 kts | 208° |
| 2026-05-06 10:48 | 38.06591 | -117.09553 | 5438 ft | 9 kts | 245° |
| 2026-05-06 10:49 | 38.06584 | -117.09549 | 5438 ft | 0 kts | 82° |